Airfield :







YOU CAN JOIN US ON...

 
LOGIN :

Register | Disclaimer

   EN    FR    IT 

 









Legend :    VFR   Marginal VFR   IFR   Intensive IFR   Very Intensive IFR
Visi :
Ceiling :
>= 8 km
>= 3000ft
5 to 8 km
1000 to 3000 ft
1500m to 5 km
500 to 1000 ft
800 to 1500m
200 to 500 ft
< 800m
< 200 ft
Symbols :   Thunderstorms  Fog  Heavy snow  Heavy precipitations  Wind > 20 kt






- Airport Elevation : 10 ft
- IATA code : BRX


MDBH - Maria Montez Int.

CURRENT METAR :
  • 292000Z 13013KT 9999 FEW020CB FEW022 31/24 Q1009 CB/NE/E/SE/W

EXPIRED METARs :
  • 291900Z 13012KT 9999 FEW020CB FEW022 31/24 Q1010 CB/E/SE/S/W
  • 291800Z 13011KT 9999 FEW022CB FEW025 32/22 Q1010 CB/NE/E/SE/S

TAF TAF MDBH
Valid from the 29 at 18:00 until the 30 at 18:00 UTC


291600Z 2918/3018 13015KT 9999 FEW022CB SCT025 SCT080
PROB30 2921/3003 7000-RA FEW014CB BKN014
MDCS FIR / North America



MET'MAP, your aeronautical weather chart ! - Copyright ORBIFLY December 2007 - Disclaimer

ORBIFLY MET'MAP TEAM :

Programming & Development : Alexandra Zaïnal
Concept & original design : Baudouin d'Aumeries
Assistance for programming : Marc-Olivier Méhu
Technical & hardware support : Manuel Goepfert

Contact : metmap@orbifly.com




SOURCES & CREDITS :

   NOAA